Time;durP1;ratioP1;P1;durP2;ratioP2;P2;SDS_P1;SDS_P2;PMS_P1;PMS_P2;Temp;Humidity;BMP_temperature;BMP_pressure;BME280_temperature;BME280_humidity;BME280_pressure;Samples;Min_cycle;Max_cycle;Signal;HPM_P1;HPM_P2
2023/06/16 00:02:49;;;;;;;16.08;7.57;;;;;;;;;;6287588;28;20239;-70
2023/06/16 00:05:55;;;;;;;29.23;8.55;;;;;;;;;;6287356;28;20303;-69
2023/06/16 00:09:00;;;;;;;33.67;8.52;;;;;;;;;;6286979;28;20312;-69
2023/06/16 00:12:06;;;;;;;36.58;8.63;;;;;;;;;;6287600;28;20251;-70
2023/06/16 00:15:12;;;;;;;35.67;9.20;;;;;;;;;;6286845;28;20291;-70
2023/06/16 00:18:17;;;;;;;37.40;8.88;;;;;;;;;;6285461;28;20266;-69
2023/06/16 00:21:27;;;;;;;40.05;8.48;;;;;;;;;;6287700;28;20237;-69
2023/06/16 00:24:32;;;;;;;51.13;9.25;;;;;;;;;;6285210;28;20457;-69
2023/06/16 00:27:37;;;;;;;47.40;8.93;;;;;;;;;;6287426;28;20634;-70
2023/06/16 00:30:44;;;;;;;48.53;10.52;;;;;;;;;;6284375;28;20303;-69
2023/06/16 00:33:49;;;;;;;70.80;10.30;;;;;;;;;;6285720;28;20287;-70
2023/06/16 00:36:54;;;;;;;69.22;10.02;;;;;;;;;;6285806;28;20275;-68
2023/06/16 00:39:58;;;;;;;62.97;10.57;;;;;;;;;;6284555;28;20291;-68
2023/06/16 00:43:03;;;;;;;75.18;10.48;;;;;;;;;;6285101;28;20279;-69
2023/06/16 00:46:12;;;;;;;69.93;10.05;;;;;;;;;;6284659;28;20298;-69
2023/06/16 00:49:17;;;;;;;58.47;10.57;;;;;;;;;;6284333;28;20603;-69
2023/06/16 00:52:25;;;;;;;53.05;9.75;;;;;;;;;;6285053;28;20563;-69
2023/06/16 00:55:30;;;;;;;39.67;9.80;;;;;;;;;;6284286;28;20306;-70
2023/06/16 00:58:35;;;;;;;44.60;9.55;;;;;;;;;;6284579;28;20479;-70
2023/06/16 01:01:41;;;;;;;42.00;9.32;;;;;;;;;;6284510;28;20256;-70
2023/06/16 01:04:47;;;;;;;60.65;10.10;;;;;;;;;;6285363;28;20611;-69
2023/06/16 01:07:59;;;;;;;78.15;9.90;;;;;;;;;;6284614;28;20291;-69
2023/06/16 01:11:07;;;;;;;49.55;10.38;;;;;;;;;;6285478;28;20303;-69
2023/06/16 01:14:16;;;;;;;31.65;8.40;;;;;;;;;;6283795;28;20321;-68
2023/06/16 01:17:24;;;;;;;51.63;8.55;;;;;;;;;;6285615;28;20235;-69
2023/06/16 01:20:39;;;;;;;41.25;9.00;;;;;;;;;;6285158;28;20615;-69
2023/06/16 01:24:02;;;;;;;50.47;9.98;;;;;;;;;;6283668;28;20306;-70
2023/06/16 01:27:08;;;;;;;43.33;8.80;;;;;;;;;;6285298;28;20239;-69
2023/06/16 01:30:13;;;;;;;56.22;9.25;;;;;;;;;;6284497;28;20323;-70
2023/06/16 01:33:20;;;;;;;40.88;9.23;;;;;;;;;;6285329;28;20235;-69
2023/06/16 01:36:25;;;;;;;58.55;10.27;;;;;;;;;;6285544;28;20247;-70
2023/06/16 01:39:32;;;;;;;42.10;9.55;;;;;;;;;;6284934;28;20294;-69
2023/06/16 01:42:38;;;;;;;34.25;10.30;;;;;;;;;;6285753;28;20232;-69
2023/06/16 01:45:43;;;;;;;30.52;8.70;;;;;;;;;;6284932;28;20559;-69
2023/06/16 01:48:47;;;;;;;12.55;7.57;;;;;;;;;;6284430;28;20311;-70
2023/06/16 01:51:52;;;;;;;21.95;8.02;;;;;;;;;;6285007;28;20248;-69
2023/06/16 01:54:58;;;;;;;36.92;9.15;;;;;;;;;;6284549;28;20437;-69
2023/06/16 01:58:04;;;;;;;72.63;11.25;;;;;;;;;;6285327;28;20247;-71
2023/06/16 02:01:11;;;;;;;73.47;11.70;;;;;;;;;;6284521;28;20294;-70
2023/06/16 02:04:18;;;;;;;75.18;11.88;;;;;;;;;;6283204;28;20314;-70
2023/06/16 02:07:30;;;;;;;83.50;11.20;;;;;;;;;;6283230;28;20520;-69
2023/06/16 02:10:36;;;;;;;54.40;10.93;;;;;;;;;;6282641;28;20295;-69
2023/06/16 02:13:41;;;;;;;30.00;9.00;;;;;;;;;;6283004;28;20283;-70
2023/06/16 02:16:45;;;;;;;25.10;9.00;;;;;;;;;;6284775;28;20247;-71
2023/06/16 02:19:51;;;;;;;30.73;8.93;;;;;;;;;;6282934;28;20302;-70
2023/06/16 02:22:56;;;;;;;11.48;8.23;;;;;;;;;;6285162;28;20251;-70
2023/06/16 02:26:02;;;;;;;11.15;7.65;;;;;;;;;;6282974;28;20451;-69
2023/06/16 02:29:06;;;;;;;16.95;8.10;;;;;;;;;;6284148;28;20302;-70
2023/06/16 02:32:11;;;;;;;21.85;8.45;;;;;;;;;;6285116;28;20236;-69
2023/06/16 02:35:16;;;;;;;21.45;8.05;;;;;;;;;;6284472;28;20581;-69
2023/06/16 02:38:22;;;;;;;20.75;8.88;;;;;;;;;;6282771;28;20279;-69
2023/06/16 02:41:28;;;;;;;18.85;8.45;;;;;;;;;;6284524;28;20236;-69
2023/06/16 02:44:33;;;;;;;13.00;8.48;;;;;;;;;;6282625;28;20295;-72
2023/06/16 02:47:37;;;;;;;15.15;8.23;;;;;;;;;;6284531;28;20243;-70
2023/06/16 02:50:42;;;;;;;22.13;8.48;;;;;;;;;;6282383;28;20312;-69
2023/06/16 02:53:51;;;;;;;16.50;8.77;;;;;;;;;;6284215;28;20294;-70
2023/06/16 02:56:58;;;;;;;12.00;8.40;;;;;;;;;;6287988;28;20271;-68
2023/06/16 03:00:19;;;;;;;11.82;7.85;;;;;;;;;;6286858;28;20287;-68
2023/06/16 03:04:03;;;;;;;13.85;7.90;;;;;;;;;;6291456;28;20291;-69
2023/06/16 03:07:17;;;;;;;13.63;7.95;;;;;;;;;;6304130;28;20559;-70
2023/06/16 03:10:22;;;;;;;14.00;8.15;;;;;;;;;;6286915;28;20307;-70
2023/06/16 03:13:41;;;;;;;15.07;7.82;;;;;;;;;;6287077;28;20290;-70
2023/06/16 03:16:47;;;;;;;18.02;8.45;;;;;;;;;;6287584;28;20293;-71
2023/06/16 03:19:53;;;;;;;13.40;7.50;;;;;;;;;;6287029;28;20299;-69
2023/06/16 03:23:07;;;;;;;13.15;7.65;;;;;;;;;;6287326;28;20434;-70
2023/06/16 03:26:12;;;;;;;11.07;7.78;;;;;;;;;;6287719;28;20287;-69
2023/06/16 03:29:53;;;;;;;9.85;7.50;;;;;;;;;;6280961;28;20311;-70
2023/06/16 03:32:58;;;;;;;8.25;7.50;;;;;;;;;;6287230;28;20460;-69
2023/06/16 03:36:05;;;;;;;8.80;7.65;;;;;;;;;;6286242;28;20295;-69
2023/06/16 03:39:17;;;;;;;8.07;7.28;;;;;;;;;;6286155;28;20310;-70
2023/06/16 03:42:22;;;;;;;9.52;7.38;;;;;;;;;;6286902;28;20275;-69
2023/06/16 03:45:29;;;;;;;12.45;7.65;;;;;;;;;;6286386;28;20291;-70
2023/06/16 03:48:34;;;;;;;10.30;7.20;;;;;;;;;;6286342;28;20575;-69
2023/06/16 03:51:41;;;;;;;7.45;6.30;;;;;;;;;;6288433;28;20287;-69
2023/06/16 03:54:47;;;;;;;7.00;6.40;;;;;;;;;;6285911;28;20299;-70
2023/06/16 03:57:52;;;;;;;7.25;6.30;;;;;;;;;;6286654;28;20267;-69
2023/06/16 04:00:58;;;;;;;7.35;5.78;;;;;;;;;;6287612;28;20599;-69
2023/06/16 04:04:03;;;;;;;10.43;6.20;;;;;;;;;;6285815;28;20532;-70
2023/06/16 04:07:09;;;;;;;6.47;6.07;;;;;;;;;;6284842;28;20279;-68
2023/06/16 04:10:13;;;;;;;6.70;6.30;;;;;;;;;;6285555;28;20291;-69
2023/06/16 04:13:18;;;;;;;6.35;5.85;;;;;;;;;;6286863;28;20424;-69
2023/06/16 04:16:26;;;;;;;7.75;7.03;;;;;;;;;;6286570;28;20276;-69
2023/06/16 04:19:33;;;;;;;12.05;6.57;;;;;;;;;;6285297;28;20295;-70
2023/06/16 04:22:38;;;;;;;7.38;6.68;;;;;;;;;;6285590;28;20516;-69
2023/06/16 04:25:44;;;;;;;9.40;6.68;;;;;;;;;;6285151;28;20295;-70
2023/06/16 04:28:53;;;;;;;7.45;6.40;;;;;;;;;;6284681;28;20330;-70
2023/06/16 04:32:01;;;;;;;6.97;6.07;;;;;;;;;;6286091;28;20290;-69
2023/06/16 04:35:08;;;;;;;7.10;6.28;;;;;;;;;;6284926;28;20306;-69
2023/06/16 04:38:14;;;;;;;6.85;6.18;;;;;;;;;;6285241;28;20263;-71
2023/06/16 04:41:18;;;;;;;7.88;6.43;;;;;;;;;;6287083;28;20239;-69
2023/06/16 04:44:24;;;;;;;6.97;6.38;;;;;;;;;;6285171;28;20477;-69
2023/06/16 04:47:31;;;;;;;13.43;6.85;;;;;;;;;;6285557;28;20276;-68
2023/06/16 04:50:36;;;;;;;11.15;6.43;;;;;;;;;;6284433;28;20298;-70
2023/06/16 04:53:43;;;;;;;11.88;6.80;;;;;;;;;;6286247;28;20290;-70
2023/06/16 04:56:47;;;;;;;6.65;6.03;;;;;;;;;;6285107;28;20267;-70
2023/06/16 04:59:52;;;;;;;8.05;6.30;;;;;;;;;;6284598;28;20291;-68
2023/06/16 05:02:58;;;;;;;10.10;6.57;;;;;;;;;;6284804;28;20275;-69
2023/06/16 05:06:03;;;;;;;6.68;6.13;;;;;;;;;;6284177;28;20315;-69
2023/06/16 05:09:09;;;;;;;7.05;6.35;;;;;;;;;;6284041;28;20287;-69
2023/06/16 05:12:13;;;;;;;6.57;6.00;;;;;;;;;;6276937;28;20496;-69
2023/06/16 05:15:18;;;;;;;6.93;6.30;;;;;;;;;;6259719;28;20304;-68
2023/06/16 05:18:25;;;;;;;6.75;6.00;;;;;;;;;;6292755;28;20312;-69
2023/06/16 05:21:30;;;;;;;7.75;5.93;;;;;;;;;;6261532;28;20240;-69
2023/06/16 05:24:35;;;;;;;6.20;5.80;;;;;;;;;;6259340;28;20296;-70
2023/06/16 05:27:41;;;;;;;10.60;6.00;;;;;;;;;;6276268;28;20268;-69
2023/06/16 05:30:46;;;;;;;10.52;6.93;;;;;;;;;;6260041;28;20311;-70
2023/06/16 05:33:54;;;;;;;6.15;5.55;;;;;;;;;;6260433;28;20292;-71
2023/06/16 05:36:58;;;;;;;7.32;6.05;;;;;;;;;;6292300;28;20280;-71
2023/06/16 05:40:05;;;;;;;7.00;5.38;;;;;;;;;;6258968;28;20375;-69
2023/06/16 05:43:11;;;;;;;7.25;5.63;;;;;;;;;;6291580;28;20520;-71
2023/06/16 05:46:16;;;;;;;6.10;5.47;;;;;;;;;;6261355;28;20247;-70
2023/06/16 05:49:22;;;;;;;9.25;5.80;;;;;;;;;;6259025;28;20299;-71
2023/06/16 05:52:27;;;;;;;6.55;5.47;;;;;;;;;;6259649;28;20312;-69
2023/06/16 05:55:32;;;;;;;5.45;5.15;;;;;;;;;;6291794;28;20334;-70
2023/06/16 05:58:37;;;;;;;5.30;4.80;;;;;;;;;;6258952;28;20525;-71
2023/06/16 06:01:42;;;;;;;5.90;5.43;;;;;;;;;;6259196;28;20272;-73
2023/06/16 06:04:48;;;;;;;5.82;5.35;;;;;;;;;;6258867;28;20291;-70
2023/06/16 06:07:53;;;;;;;5.63;5.32;;;;;;;;;;6292728;28;20275;-70
2023/06/16 06:11:01;;;;;;;5.38;4.97;;;;;;;;;;6268398;28;20295;-70
2023/06/16 06:14:07;;;;;;;6.72;5.55;;;;;;;;;;6291067;28;20295;-70
2023/06/16 06:17:13;;;;;;;7.50;5.20;;;;;;;;;;6258327;28;20272;-70
2023/06/16 06:20:19;;;;;;;5.75;5.22;;;;;;;;;;6259080;28;20379;-70
2023/06/16 06:23:24;;;;;;;5.70;5.20;;;;;;;;;;6257778;28;20273;-71
2023/06/16 06:26:29;;;;;;;6.10;5.63;;;;;;;;;;6260524;28;20378;-69
2023/06/16 06:29:33;;;;;;;6.10;5.50;;;;;;;;;;6261855;28;20315;-70
2023/06/16 06:32:38;;;;;;;11.73;5.13;;;;;;;;;;6263164;28;20291;-70
2023/06/16 06:35:46;;;;;;;5.72;4.95;;;;;;;;;;6263004;28;20379;-69
2023/06/16 06:38:50;;;;;;;6.25;5.85;;;;;;;;;;6262901;28;20367;-68
2023/06/16 06:41:56;;;;;;;5.65;5.15;;;;;;;;;;6263135;28;20347;-70
2023/06/16 06:45:02;;;;;;;7.68;5.20;;;;;;;;;;6279218;28;20583;-70
2023/06/16 06:48:08;;;;;;;6.60;5.30;;;;;;;;;;6296730;28;20279;-70
2023/06/16 06:51:16;;;;;;;6.22;5.50;;;;;;;;;;6263574;28;20287;-72
2023/06/16 06:54:20;;;;;;;4.97;4.78;;;;;;;;;;6263887;28;20299;-70
2023/06/16 06:57:25;;;;;;;13.23;5.78;;;;;;;;;;6264257;28;20353;-72
2023/06/16 07:00:29;;;;;;;4.93;4.70;;;;;;;;;;6263916;28;20311;-70
2023/06/16 07:03:34;;;;;;;5.50;4.97;;;;;;;;;;6263553;28;20299;-70
2023/06/16 07:06:40;;;;;;;4.65;4.45;;;;;;;;;;6263982;28;20248;-71
2023/06/16 07:09:45;;;;;;;5.53;5.15;;;;;;;;;;6271984;28;20520;-71
2023/06/16 07:12:50;;;;;;;6.55;5.05;;;;;;;;;;6263492;28;20263;-70
2023/06/16 07:15:55;;;;;;;5.22;4.85;;;;;;;;;;6263452;28;20292;-71
2023/06/16 07:19:01;;;;;;;6.07;4.82;;;;;;;;;;6263312;28;20303;-70
2023/06/16 07:22:07;;;;;;;5.13;4.82;;;;;;;;;;6295204;28;20275;-71
2023/06/16 07:25:12;;;;;;;4.85;4.20;;;;;;;;;;6262889;28;20291;-71
2023/06/16 07:28:17;;;;;;;4.55;4.40;;;;;;;;;;6263049;28;20481;-70
2023/06/16 07:31:21;;;;;;;4.43;4.22;;;;;;;;;;6263600;28;20493;-71
2023/06/16 07:34:26;;;;;;;5.65;4.80;;;;;;;;;;6262893;28;20480;-71
2023/06/16 07:37:32;;;;;;;4.82;4.45;;;;;;;;;;6261812;28;20548;-70
2023/06/16 07:40:37;;;;;;;5.10;4.63;;;;;;;;;;6262722;28;20494;-71
2023/06/16 07:43:41;;;;;;;5.57;4.47;;;;;;;;;;6263074;28;20295;-70
2023/06/16 07:46:46;;;;;;;5.30;4.82;;;;;;;;;;6263562;28;20256;-71
2023/06/16 07:49:50;;;;;;;5.45;4.53;;;;;;;;;;6263339;28;20304;-70
2023/06/16 07:52:56;;;;;;;5.22;4.82;;;;;;;;;;6263212;28;20467;-70
2023/06/16 07:56:02;;;;;;;4.70;4.20;;;;;;;;;;6262627;28;20304;-70
2023/06/16 07:59:07;;;;;;;5.07;4.20;;;;;;;;;;6277472;28;20291;-71
2023/06/16 08:02:11;;;;;;;4.97;4.57;;;;;;;;;;6263188;28;20248;-71
2023/06/16 08:05:17;;;;;;;7.88;4.55;;;;;;;;;;6262294;28;20303;-71
2023/06/16 08:08:27;;;;;;;7.05;4.43;;;;;;;;;;6261950;28;20260;-70
2023/06/16 08:11:32;;;;;;;4.55;4.20;;;;;;;;;;6284333;28;20274;-70
2023/06/16 08:14:36;;;;;;;4.18;3.95;;;;;;;;;;6285489;28;20570;-72
2023/06/16 08:17:42;;;;;;;4.18;4.05;;;;;;;;;;6287425;28;20243;-71
2023/06/16 08:20:47;;;;;;;4.35;4.00;;;;;;;;;;6286949;28;20299;-70
2023/06/16 08:23:53;;;;;;;4.47;4.00;;;;;;;;;;6286824;28;20385;-73
2023/06/16 08:26:59;;;;;;;4.78;4.30;;;;;;;;;;6288026;28;20240;-71
2023/06/16 08:30:04;;;;;;;5.70;3.88;;;;;;;;;;6287504;28;20299;-72
2023/06/16 08:33:09;;;;;;;4.35;4.15;;;;;;;;;;6288347;28;20540;-70
2023/06/16 08:36:14;;;;;;;5.30;4.00;;;;;;;;;;6287665;28;20262;-71
2023/06/16 08:39:21;;;;;;;6.53;4.30;;;;;;;;;;6287520;28;20290;-70
2023/06/16 08:42:26;;;;;;;3.90;3.80;;;;;;;;;;6287881;28;20541;-70
2023/06/16 08:45:30;;;;;;;4.32;4.13;;;;;;;;;;6287503;28;20386;-70
2023/06/16 08:48:36;;;;;;;7.80;4.20;;;;;;;;;;6287229;28;20295;-73
2023/06/16 08:51:42;;;;;;;7.25;4.30;;;;;;;;;;6286864;28;20280;-70
2023/06/16 08:54:49;;;;;;;5.22;4.10;;;;;;;;;;6286863;28;20295;-70
2023/06/16 08:57:54;;;;;;;6.93;4.28;;;;;;;;;;6287031;28;20395;-71
2023/06/16 09:00:59;;;;;;;4.07;3.78;;;;;;;;;;6286154;28;20302;-72
2023/06/16 09:04:04;;;;;;;4.20;4.10;;;;;;;;;;6286252;28;20302;-72
2023/06/16 09:07:10;;;;;;;4.10;3.50;;;;;;;;;;6286517;28;20243;-71
2023/06/16 09:10:16;;;;;;;10.15;4.00;;;;;;;;;;6286313;28;20295;-72
2023/06/16 09:13:21;;;;;;;4.28;3.95;;;;;;;;;;6285968;28;20267;-71
2023/06/16 09:16:27;;;;;;;4.88;3.92;;;;;;;;;;6286341;28;20259;-72
2023/06/16 09:19:34;;;;;;;6.60;4.30;;;;;;;;;;6285605;28;20299;-71
2023/06/16 09:22:39;;;;;;;6.75;3.97;;;;;;;;;;6286147;28;20267;-71
2023/06/16 09:25:45;;;;;;;5.20;4.38;;;;;;;;;;6285757;28;20291;-71
2023/06/16 09:28:49;;;;;;;4.80;4.45;;;;;;;;;;6284956;28;20287;-72
2023/06/16 09:31:54;;;;;;;4.25;3.85;;;;;;;;;;6286250;28;20236;-70
2023/06/16 09:34:59;;;;;;;6.90;3.75;;;;;;;;;;6284941;28;20298;-71
2023/06/16 09:38:04;;;;;;;3.80;3.60;;;;;;;;;;6284836;28;20267;-71
2023/06/16 09:41:15;;;;;;;8.73;3.63;;;;;;;;;;6285830;28;20287;-70
2023/06/16 09:44:20;;;;;;;4.22;3.95;;;;;;;;;;6286798;28;20292;-71
2023/06/16 09:47:25;;;;;;;4.90;3.80;;;;;;;;;;6287315;28;20271;-73
2023/06/16 09:50:31;;;;;;;5.53;3.70;;;;;;;;;;6286368;28;20299;-70
2023/06/16 09:53:36;;;;;;;5.78;3.90;;;;;;;;;;6284387;28;20307;-71
2023/06/16 09:56:44;;;;;;;4.30;4.10;;;;;;;;;;6284788;28;20239;-71
2023/06/16 09:59:48;;;;;;;3.85;3.65;;;;;;;;;;6284772;28;20300;-72
2023/06/16 10:02:55;;;;;;;4.05;3.72;;;;;;;;;;6283971;28;20434;-71
2023/06/16 10:06:06;;;;;;;4.47;4.18;;;;;;;;;;6284546;28;20287;-71
2023/06/16 10:09:11;;;;;;;6.53;4.28;;;;;;;;;;6284464;28;20297;-71
2023/06/16 10:12:19;;;;;;;4.15;3.65;;;;;;;;;;6285507;28;20248;-71
2023/06/16 10:15:26;;;;;;;4.25;3.92;;;;;;;;;;6284449;28;20307;-70
2023/06/16 10:18:32;;;;;;;4.43;3.97;;;;;;;;;;6284424;28;20263;-71
2023/06/16 10:21:37;;;;;;;3.50;3.33;;;;;;;;;;6284783;28;20443;-69
2023/06/16 10:24:41;;;;;;;4.22;3.65;;;;;;;;;;6284311;28;20308;-71
2023/06/16 10:27:48;;;;;;;3.58;3.47;;;;;;;;;;6284743;28;20251;-71
2023/06/16 10:30:53;;;;;;;4.68;4.40;;;;;;;;;;6283929;28;20307;-70
2023/06/16 10:33:59;;;;;;;3.60;3.40;;;;;;;;;;6284666;28;20304;-72
2023/06/16 10:37:04;;;;;;;3.22;3.13;;;;;;;;;;6284847;28;20243;-71
2023/06/16 10:40:14;;;;;;;3.58;3.25;;;;;;;;;;6284759;28;20291;-71
2023/06/16 10:43:26;;;;;;;4.07;3.88;;;;;;;;;;6283742;28;20249;-72
2023/06/16 10:46:31;;;;;;;5.47;4.22;;;;;;;;;;6284520;28;20536;-70
2023/06/16 10:49:45;;;;;;;3.95;3.60;;;;;;;;;;6284157;28;20294;-71
2023/06/16 10:52:53;;;;;;;3.70;3.50;;;;;;;;;;6282668;28;20275;-72
2023/06/16 10:56:05;;;;;;;4.60;4.30;;;;;;;;;;6284025;28;20310;-71
2023/06/16 10:59:17;;;;;;;11.88;3.90;;;;;;;;;;6284108;28;20615;-71
2023/06/16 11:02:23;;;;;;;4.10;3.20;;;;;;;;;;6284434;28;20293;-70
2023/06/16 11:05:38;;;;;;;3.85;3.40;;;;;;;;;;6284373;28;20447;-70
2023/06/16 11:08:53;;;;;;;4.15;3.55;;;;;;;;;;6283672;28;20283;-71
2023/06/16 11:11:59;;;;;;;3.72;3.50;;;;;;;;;;6277620;28;20240;-70
2023/06/16 11:15:06;;;;;;;3.95;3.75;;;;;;;;;;6285770;28;20303;-71
2023/06/16 11:18:16;;;;;;;3.60;3.40;;;;;;;;;;6288571;28;20248;-71
2023/06/16 11:21:21;;;;;;;5.63;3.80;;;;;;;;;;6289021;28;20240;-72
2023/06/16 11:24:25;;;;;;;4.03;3.80;;;;;;;;;;6288075;28;20303;-71
2023/06/16 11:27:30;;;;;;;3.40;3.35;;;;;;;;;;6288070;28;20422;-72
2023/06/16 11:30:38;;;;;;;3.45;3.35;;;;;;;;;;6288431;28;20298;-73
2023/06/16 11:33:43;;;;;;;4.68;3.38;;;;;;;;;;6288367;28;20294;-70
2023/06/16 11:36:48;;;;;;;3.67;3.35;;;;;;;;;;6288587;28;20235;-71
2023/06/16 11:39:56;;;;;;;4.28;3.97;;;;;;;;;;6290166;28;20287;-71
2023/06/16 11:43:04;;;;;;;3.40;3.13;;;;;;;;;;6291895;28;20243;-71
2023/06/16 11:46:11;;;;;;;3.70;3.60;;;;;;;;;;6287409;28;20308;-71
2023/06/16 11:49:17;;;;;;;3.97;3.78;;;;;;;;;;6287385;28;20323;-70
2023/06/16 11:52:22;;;;;;;4.15;3.95;;;;;;;;;;6287719;28;20416;-70
2023/06/16 11:55:27;;;;;;;7.13;3.88;;;;;;;;;;6286260;28;20491;-71
2023/06/16 11:58:34;;;;;;;4.32;3.95;;;;;;;;;;6286638;28;20287;-70
2023/06/16 12:01:40;;;;;;;3.67;3.58;;;;;;;;;;6288618;28;20251;-70
2023/06/16 12:04:45;;;;;;;4.03;3.72;;;;;;;;;;6288132;28;20316;-72
2023/06/16 12:07:51;;;;;;;4.15;3.80;;;;;;;;;;6288322;28;20247;-70
2023/06/16 12:10:57;;;;;;;4.53;3.80;;;;;;;;;;6287033;28;20605;-71
2023/06/16 12:14:02;;;;;;;3.65;3.40;;;;;;;;;;6287324;28;20295;-70
2023/06/16 12:17:09;;;;;;;3.70;3.60;;;;;;;;;;6287720;28;20243;-70
2023/06/16 12:20:14;;;;;;;4.10;3.83;;;;;;;;;;6287083;28;20296;-69
2023/06/16 12:23:19;;;;;;;4.00;3.78;;;;;;;;;;6287111;28;20231;-70
2023/06/16 12:26:29;;;;;;;3.75;3.50;;;;;;;;;;6286120;28;20246;-71
2023/06/16 12:29:34;;;;;;;4.35;3.97;;;;;;;;;;6286727;28;20304;-72
2023/06/16 12:32:42;;;;;;;4.07;3.85;;;;;;;;;;6286036;28;20436;-71
2023/06/16 12:35:47;;;;;;;4.38;4.07;;;;;;;;;;6286891;28;20303;-70
2023/06/16 12:38:53;;;;;;;4.35;4.00;;;;;;;;;;6286767;28;20582;-67
2023/06/16 12:41:59;;;;;;;4.10;3.90;;;;;;;;;;6286458;28;20433;-69
2023/06/16 12:45:06;;;;;;;4.75;4.40;;;;;;;;;;6286511;28;20302;-69
2023/06/16 12:48:12;;;;;;;4.95;4.43;;;;;;;;;;6286895;28;20231;-68
2023/06/16 12:51:17;;;;;;;4.13;3.90;;;;;;;;;;6286208;28;20267;-72
2023/06/16 12:54:23;;;;;;;4.35;4.15;;;;;;;;;;6286396;28;20299;-68
2023/06/16 12:57:28;;;;;;;6.03;4.30;;;;;;;;;;6286912;28;20248;-70
2023/06/16 13:00:35;;;;;;;4.68;4.22;;;;;;;;;;6286363;28;20595;-70
2023/06/16 13:03:46;;;;;;;4.72;4.45;;;;;;;;;;6285826;28;20291;-70
2023/06/16 13:06:52;;;;;;;5.25;4.85;;;;;;;;;;6285092;28;20576;-69
2023/06/16 13:09:56;;;;;;;4.22;4.00;;;;;;;;;;6285883;28;20303;-70
2023/06/16 13:13:02;;;;;;;7.72;4.38;;;;;;;;;;6268613;28;20355;-68
2023/06/16 13:16:06;;;;;;;4.60;4.38;;;;;;;;;;6285896;28;20298;-71
2023/06/16 13:19:12;;;;;;;4.45;4.28;;;;;;;;;;6285548;28;20294;-69
2023/06/16 13:22:17;;;;;;;4.85;4.50;;;;;;;;;;6285883;28;20239;-70
2023/06/16 13:25:22;;;;;;;8.35;4.32;;;;;;;;;;6285531;28;20291;-72
2023/06/16 13:28:26;;;;;;;4.55;4.30;;;;;;;;;;6285316;28;20255;-69
2023/06/16 13:31:31;;;;;;;4.68;4.30;;;;;;;;;;6286376;28;20286;-71
2023/06/16 13:34:37;;;;;;;5.60;4.90;;;;;;;;;;6285679;28;20307;-71
2023/06/16 13:37:42;;;;;;;4.75;4.35;;;;;;;;;;6285867;28;20243;-70
2023/06/16 13:40:46;;;;;;;4.65;4.32;;;;;;;;;;6285578;28;20295;-71
2023/06/16 13:43:52;;;;;;;4.80;4.50;;;;;;;;;;6285363;28;20298;-70
2023/06/16 13:46:57;;;;;;;5.70;5.00;;;;;;;;;;6285816;28;20245;-70
2023/06/16 13:50:03;;;;;;;4.82;4.63;;;;;;;;;;6285285;28;20302;-71
2023/06/16 13:53:08;;;;;;;4.28;4.03;;;;;;;;;;6285822;28;20493;-70
2023/06/16 13:56:13;;;;;;;5.45;5.03;;;;;;;;;;6284693;28;20502;-70
2023/06/16 13:59:18;;;;;;;7.03;4.80;;;;;;;;;;6284693;28;20291;-69
2023/06/16 14:02:22;;;;;;;5.35;4.90;;;;;;;;;;6284626;28;20239;-70
2023/06/16 14:05:29;;;;;;;6.35;5.00;;;;;;;;;;6284485;28;20306;-70
2023/06/16 14:08:33;;;;;;;5.03;4.63;;;;;;;;;;6284573;28;20405;-70
2023/06/16 14:11:38;;;;;;;5.43;5.10;;;;;;;;;;6284642;28;20240;-69
2023/06/16 14:14:43;;;;;;;5.20;5.00;;;;;;;;;;6284396;28;20294;-70
2023/06/16 14:17:47;;;;;;;6.18;4.95;;;;;;;;;;6284456;28;20405;-70
2023/06/16 14:20:54;;;;;;;5.60;5.20;;;;;;;;;;6284168;28;20295;-69
2023/06/16 14:23:58;;;;;;;4.97;4.68;;;;;;;;;;6284225;28;20312;-70
2023/06/16 14:27:04;;;;;;;7.15;4.80;;;;;;;;;;6285213;28;20239;-72
2023/06/16 14:30:10;;;;;;;5.38;5.18;;;;;;;;;;6284461;28;20602;-70
2023/06/16 14:33:14;;;;;;;5.28;4.88;;;;;;;;;;6285377;28;20406;-71
2023/06/16 14:36:20;;;;;;;5.60;5.28;;;;;;;;;;6285349;28;20259;-70
2023/06/16 14:39:25;;;;;;;6.35;5.05;;;;;;;;;;6284671;28;20306;-70
2023/06/16 14:42:30;;;;;;;5.55;5.15;;;;;;;;;;6285024;28;20243;-70
2023/06/16 14:45:34;;;;;;;5.68;5.28;;;;;;;;;;6284767;28;20295;-73
2023/06/16 14:48:39;;;;;;;5.45;5.15;;;;;;;;;;6284399;28;20288;-70
2023/06/16 14:51:45;;;;;;;5.30;5.05;;;;;;;;;;6289062;28;20260;-70
2023/06/16 14:54:50;;;;;;;5.55;5.18;;;;;;;;;;6288845;28;20299;-70
2023/06/16 14:57:54;;;;;;;6.30;5.10;;;;;;;;;;6289500;28;20295;-71
2023/06/16 15:01:01;;;;;;;6.18;5.75;;;;;;;;;;6289428;28;20581;-72
2023/06/16 15:04:06;;;;;;;5.63;5.32;;;;;;;;;;6288818;28;20295;-70
2023/06/16 15:07:12;;;;;;;5.97;5.57;;;;;;;;;;6288777;28;20252;-70
2023/06/16 15:10:17;;;;;;;5.32;5.10;;;;;;;;;;6288113;28;20295;-71
2023/06/16 15:13:22;;;;;;;5.63;5.30;;;;;;;;;;6287902;28;20240;-70
2023/06/16 15:16:27;;;;;;;9.55;5.78;;;;;;;;;;6288152;28;20264;-71
2023/06/16 15:19:31;;;;;;;6.70;6.03;;;;;;;;;;6286335;28;20295;-70
2023/06/16 15:22:37;;;;;;;5.78;5.38;;;;;;;;;;6288214;28;20239;-71
2023/06/16 15:25:42;;;;;;;6.57;5.60;;;;;;;;;;6287614;28;20295;-70
2023/06/16 15:28:47;;;;;;;7.20;5.65;;;;;;;;;;6287767;28;20299;-70
2023/06/16 15:31:52;;;;;;;7.03;5.65;;;;;;;;;;6288287;28;20239;-72
2023/06/16 15:34:57;;;;;;;6.82;6.20;;;;;;;;;;6287875;28;20545;-69
2023/06/16 15:38:03;;;;;;;6.10;5.65;;;;;;;;;;6287560;28;20271;-70
2023/06/16 15:41:08;;;;;;;6.05;5.55;;;;;;;;;;6287297;28;20295;-72
2023/06/16 15:44:12;;;;;;;6.20;5.60;;;;;;;;;;6287117;28;20307;-69
2023/06/16 15:47:17;;;;;;;17.30;6.82;;;;;;;;;;6288724;28;20243;-70
2023/06/16 15:50:21;;;;;;;7.50;5.95;;;;;;;;;;6285380;28;20295;-69
2023/06/16 15:53:27;;;;;;;7.00;6.30;;;;;;;;;;6286894;28;20413;-69
2023/06/16 15:56:32;;;;;;;6.32;5.85;;;;;;;;;;6287513;28;20263;-69
2023/06/16 15:59:37;;;;;;;9.75;5.75;;;;;;;;;;6286926;28;20303;-71
2023/06/16 16:02:42;;;;;;;9.00;6.10;;;;;;;;;;6287020;28;20243;-70
2023/06/16 16:05:47;;;;;;;7.15;5.97;;;;;;;;;;6286691;28;20465;-70
2023/06/16 16:08:52;;;;;;;7.88;6.43;;;;;;;;;;6286582;28;20367;-69
2023/06/16 16:11:57;;;;;;;10.02;6.55;;;;;;;;;;6286634;28;20239;-70
2023/06/16 16:15:03;;;;;;;7.05;6.32;;;;;;;;;;6286115;28;20311;-69
2023/06/16 16:18:10;;;;;;;7.57;6.40;;;;;;;;;;6286986;28;20260;-70
2023/06/16 16:21:15;;;;;;;8.15;6.97;;;;;;;;;;6286487;28;20516;-69
2023/06/16 16:24:21;;;;;;;8.07;5.72;;;;;;;;;;6285814;28;20307;-70
2023/06/16 16:27:27;;;;;;;10.82;6.47;;;;;;;;;;6286896;28;20409;-70
2023/06/16 16:30:32;;;;;;;7.03;6.32;;;;;;;;;;6286045;28;20299;-71
2023/06/16 16:33:36;;;;;;;7.07;6.47;;;;;;;;;;6285841;28;20287;-71
2023/06/16 16:36:41;;;;;;;10.75;6.78;;;;;;;;;;6286696;28;20263;-71
2023/06/16 16:39:47;;;;;;;6.82;6.15;;;;;;;;;;6286220;28;20295;-69
2023/06/16 16:42:52;;;;;;;7.20;6.40;;;;;;;;;;6284789;28;20263;-70
2023/06/16 16:45:56;;;;;;;6.88;5.93;;;;;;;;;;6285733;28;20322;-70
2023/06/16 16:49:01;;;;;;;7.70;6.97;;;;;;;;;;6285515;28;20548;-73
2023/06/16 16:52:07;;;;;;;6.88;6.35;;;;;;;;;;6285831;28;20383;-70
2023/06/16 16:55:13;;;;;;;6.50;5.90;;;;;;;;;;6285198;28;20290;-69
2023/06/16 16:58:38;;;;;;;10.40;6.70;;;;;;;;;;6285111;28;20295;-70
2023/06/16 17:01:44;;;;;;;7.10;5.80;;;;;;;;;;6285445;28;20249;-71
2023/06/16 17:04:48;;;;;;;7.03;6.07;;;;;;;;;;6283415;28;20462;-70
2023/06/16 17:07:53;;;;;;;10.60;6.72;;;;;;;;;;6285463;28;20267;-69
2023/06/16 17:11:02;;;;;;;12.15;6.57;;;;;;;;;;6283229;28;20287;-70
2023/06/16 17:14:07;;;;;;;9.27;6.43;;;;;;;;;;6284038;28;20298;-70
2023/06/16 17:17:11;;;;;;;8.10;7.32;;;;;;;;;;6285323;28;20412;-69
2023/06/16 17:20:16;;;;;;;7.13;6.47;;;;;;;;;;6284636;28;20304;-70
2023/06/16 17:23:21;;;;;;;7.43;6.82;;;;;;;;;;6284379;28;20240;-69
2023/06/16 17:26:27;;;;;;;13.60;6.93;;;;;;;;;;6283740;28;20291;-69
2023/06/16 17:29:31;;;;;;;8.48;7.47;;;;;;;;;;6282786;28;20443;-70
2023/06/16 17:32:36;;;;;;;7.55;6.60;;;;;;;;;;6285240;28;20457;-68
2023/06/16 17:35:41;;;;;;;13.13;7.13;;;;;;;;;;6284591;28;20295;-70
2023/06/16 17:38:45;;;;;;;16.67;11.75;;;;;;;;;;6283827;28;20299;-68
2023/06/16 17:41:51;;;;;;;7.65;6.68;;;;;;;;;;6283471;28;20511;-66
2023/06/16 17:44:59;;;;;;;7.07;6.50;;;;;;;;;;6283425;28;20299;-69
2023/06/16 17:48:05;;;;;;;21.00;7.50;;;;;;;;;;6285057;28;20406;-69
2023/06/16 17:51:10;;;;;;;9.93;7.70;;;;;;;;;;6284555;28;20330;-71
2023/06/16 17:54:14;;;;;;;7.75;7.13;;;;;;;;;;6284442;28;20294;-71
2023/06/16 17:57:21;;;;;;;8.85;7.10;;;;;;;;;;6284446;28;20235;-71
2023/06/16 18:00:25;;;;;;;8.32;6.50;;;;;;;;;;6284447;28;20542;-71
2023/06/16 18:03:30;;;;;;;7.07;6.50;;;;;;;;;;6284236;28;20386;-70
2023/06/16 18:06:35;;;;;;;7.82;7.13;;;;;;;;;;6283273;28;20271;-70
2023/06/16 18:09:39;;;;;;;11.55;6.95;;;;;;;;;;6283027;28;20295;-70
2023/06/16 18:12:45;;;;;;;6.95;6.43;;;;;;;;;;6284285;28;20239;-71
2023/06/16 18:15:50;;;;;;;10.48;7.10;;;;;;;;;;6283948;28;20320;-70
2023/06/16 18:18:54;;;;;;;7.50;6.80;;;;;;;;;;6284371;28;20294;-70
2023/06/16 18:22:00;;;;;;;6.70;6.20;;;;;;;;;;6284202;28;20239;-69
2023/06/16 18:25:05;;;;;;;6.90;6.30;;;;;;;;;;6286028;28;20299;-69
2023/06/16 18:28:11;;;;;;;7.15;6.55;;;;;;;;;;6289004;28;20244;-69
2023/06/16 18:31:15;;;;;;;21.83;7.07;;;;;;;;;;6288552;28;20299;-70